createdAt,value
2022-11-20T00:02:12.190Z,100.00
2022-11-20T00:04:40.610Z,100.00
2022-11-20T00:07:08.846Z,100.00
2022-11-20T00:09:38.337Z,100.00
2022-11-20T00:12:07.172Z,100.00
2022-11-20T00:14:35.399Z,100.00
2022-11-20T00:17:03.431Z,100.00
2022-11-20T00:19:31.604Z,100.00
2022-11-20T00:21:59.779Z,100.00
2022-11-20T00:24:27.925Z,100.00
2022-11-20T00:26:57.463Z,100.00
2022-11-20T00:29:25.649Z,100.00
2022-11-20T00:31:53.859Z,100.00
2022-11-20T00:34:22.043Z,100.00
2022-11-20T00:36:50.159Z,100.00
2022-11-20T00:39:18.588Z,100.00
2022-11-20T00:41:46.922Z,100.00
2022-11-20T00:44:16.401Z,100.00
2022-11-20T00:46:44.657Z,100.00
2022-11-20T00:49:15.084Z,100.00
2022-11-20T00:51:43.307Z,100.00
2022-11-20T00:54:11.383Z,100.00
2022-11-20T00:56:39.771Z,100.00
2022-11-20T00:59:09.249Z,100.00
2022-11-20T01:01:39.943Z,100.00
2022-11-20T01:04:08.124Z,100.00
2022-11-20T01:06:38.047Z,100.00
2022-11-20T01:09:08.399Z,100.00
2022-11-20T01:11:38.905Z,100.00
2022-11-20T01:14:09.022Z,100.00
2022-11-20T01:16:40.903Z,100.00
2022-11-20T01:19:17.367Z,100.00
2022-11-20T01:21:48.228Z,100.00
2022-11-20T01:24:18.702Z,100.00
2022-11-20T01:26:49.592Z,100.00
2022-11-20T01:29:24.302Z,100.00
2022-11-20T01:31:54.507Z,100.00
2022-11-20T01:34:24.474Z,100.00
2022-11-20T01:36:54.431Z,100.00
2022-11-20T01:39:25.105Z,100.00
2022-11-20T01:42:11.977Z,100.00
2022-11-20T01:44:52.241Z,100.00
2022-11-20T01:47:23.279Z,100.00
2022-11-20T01:49:57.342Z,100.00
2022-11-20T01:52:28.430Z,100.00
2022-11-20T01:55:02.713Z,100.00
2022-11-20T01:57:33.851Z,100.00
2022-11-20T02:00:05.661Z,100.00
2022-11-20T02:02:35.723Z,100.00
2022-11-20T02:05:14.305Z,100.00
2022-11-20T02:07:43.397Z,100.00
2022-11-20T02:10:11.617Z,100.00
2022-11-20T02:12:57.367Z,100.00
2022-11-20T02:15:30.100Z,100.00
2022-11-20T02:18:00.463Z,100.00
2022-11-20T02:20:28.908Z,100.00
2022-11-20T02:23:02.854Z,100.00
2022-11-20T02:25:34.577Z,100.00
2022-11-20T02:28:02.798Z,100.00
2022-11-20T02:30:31.021Z,100.00
2022-11-20T02:33:00.606Z,100.00
2022-11-20T02:35:47.229Z,100.00
2022-11-20T02:38:16.763Z,100.00
2022-11-20T02:40:47.736Z,100.00
2022-11-20T02:43:18.868Z,100.00
2022-11-20T02:45:47.089Z,100.00
2022-11-20T02:48:15.470Z,100.00
2022-11-20T02:50:43.907Z,100.00
2022-11-20T02:53:12.094Z,100.00
2022-11-20T02:55:40.224Z,100.00
2022-11-20T02:58:09.620Z,100.00
2022-11-20T03:00:37.706Z,100.00
2022-11-20T03:03:05.969Z,100.00
2022-11-20T03:05:34.244Z,100.00
2022-11-20T03:08:02.367Z,100.00
2022-11-20T03:10:30.808Z,100.00
2022-11-20T03:12:59.115Z,100.00
2022-11-20T03:15:28.637Z,100.00
2022-11-20T03:17:57.450Z,100.00
2022-11-20T03:20:26.301Z,100.00
2022-11-20T03:22:56.529Z,100.00
2022-11-20T03:25:24.766Z,100.00
2022-11-20T03:27:53.791Z,100.00
2022-11-20T03:30:25.021Z,100.00
2022-11-20T03:32:57.290Z,100.00
2022-11-20T03:35:25.751Z,100.00
2022-11-20T03:37:54.065Z,100.00
2022-11-20T03:40:22.425Z,100.00
2022-11-20T03:42:50.689Z,100.00
2022-11-20T03:45:20.645Z,100.00
2022-11-20T03:47:48.838Z,100.00
2022-11-20T03:50:18.652Z,100.00
2022-11-20T03:52:49.670Z,100.00
2022-11-20T03:55:18.115Z,100.00
2022-11-20T03:57:46.451Z,100.00
2022-11-20T04:00:17.188Z,100.00
2022-11-20T04:02:45.697Z,100.00
2022-11-20T04:05:15.277Z,100.00
2022-11-20T04:07:45.074Z,100.00
2022-11-20T04:10:13.467Z,100.00
2022-11-20T04:12:41.733Z,100.00
2022-11-20T04:15:10.845Z,100.00
2022-11-20T04:17:39.269Z,100.00
2022-11-20T04:20:08.833Z,100.00
2022-11-20T04:22:37.116Z,100.00
2022-11-20T04:25:07.585Z,100.00
2022-11-20T04:27:35.762Z,100.00
2022-11-20T04:30:03.991Z,100.00
2022-11-20T04:32:32.171Z,100.00
2022-11-20T04:35:00.281Z,100.00
2022-11-20T04:37:28.510Z,100.00
2022-11-20T04:39:56.687Z,100.00
2022-11-20T04:42:31.983Z,100.00
2022-11-20T04:45:00.135Z,100.00
2022-11-20T04:47:28.422Z,100.00
2022-11-20T04:49:56.555Z,100.00
2022-11-20T04:52:24.734Z,100.00
2022-11-20T04:54:54.506Z,100.00
2022-11-20T04:57:22.603Z,100.00
2022-11-20T04:59:52.215Z,100.00
2022-11-20T05:02:20.655Z,100.00
2022-11-20T05:04:49.075Z,100.00
2022-11-20T05:07:17.727Z,100.00
2022-11-20T05:09:45.899Z,100.00
2022-11-20T05:12:14.384Z,100.00
2022-11-20T05:14:42.495Z,100.00
2022-11-20T05:17:14.513Z,100.00
2022-11-20T05:19:42.645Z,100.00
2022-11-20T05:22:10.767Z,100.00
2022-11-20T05:24:39.392Z,100.00
2022-11-20T05:27:07.526Z,100.00
2022-11-20T05:29:35.697Z,100.00
2022-11-20T05:32:03.814Z,100.00
2022-11-20T05:34:33.470Z,100.00
2022-11-20T05:37:01.655Z,100.00
2022-11-20T05:39:30.081Z,100.00
2022-11-20T05:42:12.072Z,100.00
2022-11-20T05:44:40.231Z,100.00
2022-11-20T05:47:08.750Z,100.00
2022-11-20T05:49:38.376Z,100.00
2022-11-20T05:52:06.554Z,100.00
2022-11-20T05:54:34.978Z,100.00
2022-11-20T05:57:03.640Z,100.00
2022-11-20T05:59:31.843Z,100.00
2022-11-20T06:01:59.948Z,100.00
2022-11-20T06:04:28.307Z,100.00
2022-11-20T06:06:57.963Z,100.00
2022-11-20T06:09:26.271Z,100.00
2022-11-20T06:11:54.491Z,100.00
2022-11-20T06:14:22.757Z,100.00
2022-11-20T06:16:51.029Z,100.00
2022-11-20T06:19:19.479Z,100.00
2022-11-20T06:21:49.713Z,100.00
2022-11-20T06:24:20.019Z,100.00
2022-11-20T06:26:48.118Z,100.00
2022-11-20T06:29:16.427Z,100.00
2022-11-20T06:31:44.898Z,100.00
2022-11-20T06:34:13.029Z,100.00
2022-11-20T06:36:41.142Z,100.00
2022-11-20T06:39:09.522Z,100.00
2022-11-20T06:41:39.141Z,100.00
2022-11-20T06:44:07.507Z,100.00
2022-11-20T06:46:35.692Z,100.00
2022-11-20T06:49:05.040Z,100.00
2022-11-20T06:51:33.149Z,100.00
2022-11-20T06:54:02.060Z,100.00
2022-11-20T06:56:30.326Z,100.00
2022-11-20T06:59:00.099Z,100.00
2022-11-20T07:01:28.411Z,100.00
2022-11-20T07:03:56.825Z,100.00
2022-11-20T07:06:24.921Z,100.00
2022-11-20T07:08:53.530Z,100.00
2022-11-20T07:11:21.684Z,100.00
2022-11-20T07:13:49.864Z,100.00
2022-11-20T07:16:20.302Z,100.00
2022-11-20T07:18:50.728Z,100.00
2022-11-20T07:21:19.594Z,100.00
2022-11-20T07:23:47.928Z,100.00
2022-11-20T07:26:16.232Z,100.00
2022-11-20T07:28:48.386Z,100.00
2022-11-20T07:31:19.621Z,100.00
2022-11-20T07:33:49.497Z,100.00
2022-11-20T07:36:18.326Z,100.00
2022-11-20T07:38:46.621Z,100.00
2022-11-20T07:41:14.741Z,100.00
2022-11-20T07:43:42.821Z,100.00
2022-11-20T07:46:11.101Z,100.00
2022-11-20T07:48:39.372Z,100.00
2022-11-20T07:51:09.128Z,100.00
2022-11-20T07:53:37.300Z,100.00
2022-11-20T07:56:05.822Z,100.00
2022-11-20T07:58:35.572Z,100.00
2022-11-20T08:01:08.484Z,100.00
2022-11-20T08:03:38.837Z,100.00
2022-11-20T08:06:09.871Z,100.00
2022-11-20T08:08:42.421Z,100.00
2022-11-20T08:11:28.388Z,100.00
2022-11-20T08:14:14.547Z,100.00
2022-11-20T08:16:43.328Z,100.00
2022-11-20T08:19:11.747Z,100.00
2022-11-20T08:21:41.865Z,100.00
2022-11-20T08:24:10.656Z,100.00
2022-11-20T08:26:40.274Z,100.00
2022-11-20T08:29:08.791Z,100.00
2022-11-20T08:31:37.477Z,100.00
2022-11-20T08:34:09.220Z,100.00
2022-11-20T08:36:37.979Z,100.00
2022-11-20T08:39:07.492Z,100.00
2022-11-20T08:41:36.067Z,100.00
2022-11-20T08:44:06.142Z,100.00
2022-11-20T08:46:37.352Z,100.00
2022-11-20T08:49:05.772Z,100.00
2022-11-20T08:51:34.565Z,99.86
2022-11-20T08:54:02.934Z,99.08
2022-11-20T08:56:33.049Z,98.17
2022-11-20T08:59:22.921Z,97.37
2022-11-20T09:01:49.879Z,96.17
2022-11-20T09:04:18.262Z,94.96
2022-11-20T09:06:46.540Z,95.28
2022-11-20T09:09:14.670Z,94.39
2022-11-20T09:11:44.609Z,93.61
2022-11-20T09:14:12.865Z,93.25
2022-11-20T09:16:41.171Z,92.77
2022-11-20T09:19:34.520Z,91.82
2022-11-20T09:24:47.663Z,91.03
2022-11-20T09:27:17.205Z,91.17
2022-11-20T09:29:45.224Z,91.18
2022-11-20T09:32:13.332Z,90.83
2022-11-20T09:34:41.358Z,90.00
2022-11-20T09:37:09.469Z,89.96
2022-11-20T09:39:40.065Z,89.72
2022-11-20T09:42:34.876Z,89.50
2022-11-20T09:45:15.235Z,89.57
2022-11-20T09:48:06.595Z,89.21
2022-11-20T09:50:39.321Z,89.10
2022-11-20T09:53:15.791Z,88.73
2022-11-20T09:55:45.154Z,88.25
2022-11-20T09:58:25.212Z,88.27
2022-11-20T10:00:57.451Z,87.55
2022-11-20T10:03:38.967Z,87.14
2022-11-20T10:06:11.071Z,86.89
2022-11-20T10:08:44.469Z,86.87
2022-11-20T10:11:19.709Z,86.58
2022-11-20T10:13:58.747Z,86.01
2022-11-20T10:16:41.129Z,86.07
2022-11-20T10:19:24.727Z,86.08
2022-11-20T10:22:05.979Z,86.11
2022-11-20T10:24:57.138Z,85.91
2022-11-20T10:27:42.615Z,85.86
2022-11-20T10:30:14.465Z,85.84
2022-11-20T10:32:45.199Z,85.51
2022-11-20T10:35:23.735Z,85.92
2022-11-20T10:37:55.501Z,86.00
2022-11-20T10:40:31.125Z,85.78
2022-11-20T10:43:04.079Z,85.64
2022-11-20T10:45:46.679Z,85.49
2022-11-20T10:48:19.054Z,85.14
2022-11-20T10:50:57.619Z,85.63
2022-11-20T10:53:47.849Z,85.35
2022-11-20T10:56:24.027Z,85.23
2022-11-20T10:59:10.907Z,85.61
2022-11-20T11:01:44.502Z,85.62
2022-11-20T11:04:31.326Z,86.06
2022-11-20T11:07:08.408Z,85.59
2022-11-20T11:09:41.310Z,85.18
2022-11-20T11:12:11.095Z,84.74
2022-11-20T11:14:50.423Z,84.84
2022-11-20T11:17:31.416Z,85.06
2022-11-20T11:20:05.850Z,84.71
2022-11-20T11:22:35.527Z,84.81
2022-11-20T11:25:04.178Z,84.50
2022-11-20T11:27:32.449Z,83.63
2022-11-20T11:30:16.333Z,83.18
2022-11-20T11:32:46.209Z,81.88
2022-11-20T11:35:24.424Z,81.46
2022-11-20T11:37:55.168Z,80.43
2022-11-20T11:40:28.126Z,80.65
2022-11-20T11:42:59.830Z,80.88
2022-11-20T11:45:27.479Z,81.16
2022-11-20T11:47:59.694Z,81.46
2022-11-20T11:50:29.037Z,81.44
2022-11-20T11:53:06.302Z,80.88
2022-11-20T11:55:39.046Z,79.79
2022-11-20T11:58:22.535Z,79.50
2022-11-20T12:00:58.595Z,78.87
2022-11-20T12:03:36.751Z,78.24
2022-11-20T12:06:11.273Z,78.39
2022-11-20T12:08:47.355Z,78.62
2022-11-20T12:11:22.234Z,80.14
2022-11-20T12:13:56.422Z,80.83
2022-11-20T12:16:25.178Z,81.22
2022-11-20T12:18:56.175Z,82.21
2022-11-20T12:21:33.664Z,82.66
2022-11-20T12:24:34.453Z,83.05
2022-11-20T12:27:30.295Z,83.43
2022-11-20T12:30:03.994Z,83.10
2022-11-20T12:33:06.976Z,83.16
2022-11-20T12:35:50.094Z,82.30
2022-11-20T12:38:42.381Z,82.58
2022-11-20T12:41:39.846Z,81.96
2022-11-20T12:44:36.231Z,81.85
2022-11-20T12:47:15.984Z,82.00
2022-11-20T12:49:50.815Z,82.08
2022-11-20T12:52:39.569Z,81.38
2022-11-20T12:55:28.246Z,81.08
2022-11-20T12:58:00.415Z,80.92
2022-11-20T13:00:28.899Z,79.99
2022-11-20T13:03:12.933Z,79.79
2022-11-20T13:05:51.738Z,79.61
2022-11-20T13:08:26.658Z,79.67
2022-11-20T13:11:02.308Z,79.41
2022-11-20T13:13:39.335Z,79.45
2022-11-20T13:16:14.621Z,79.61
2022-11-20T13:18:46.417Z,79.44
2022-11-20T13:21:20.027Z,78.52
2022-11-20T13:23:51.832Z,77.24
2022-11-20T13:26:22.947Z,77.00
2022-11-20T13:29:05.235Z,75.29
2022-11-20T13:31:36.101Z,74.97
2022-11-20T13:34:07.369Z,74.82
2022-11-20T13:36:51.953Z,75.43
2022-11-20T13:39:28.691Z,73.28
2022-11-20T13:41:59.015Z,73.66
2022-11-20T13:44:31.697Z,73.91
2022-11-20T13:46:59.948Z,73.57
2022-11-20T13:49:32.032Z,73.02
2022-11-20T13:52:11.194Z,72.22
2022-11-20T13:55:14.697Z,71.86
2022-11-20T13:57:57.740Z,71.74
2022-11-20T14:00:39.120Z,69.68
2022-11-20T14:03:15.880Z,69.36
2022-11-20T14:05:53.938Z,69.18
2022-11-20T14:08:34.900Z,69.76
2022-11-20T14:11:17.637Z,70.03
2022-11-20T14:14:00.294Z,69.68
2022-11-20T14:16:30.050Z,69.51
2022-11-20T14:19:00.083Z,68.84
2022-11-20T14:21:37.813Z,68.38
2022-11-20T14:24:06.877Z,66.51
2022-11-20T14:26:36.417Z,66.86
2022-11-20T14:29:04.571Z,66.68
2022-11-20T14:31:33.219Z,64.67
2022-11-20T14:34:01.426Z,65.56
2022-11-20T14:36:30.114Z,65.56
2022-11-20T14:39:02.858Z,65.31
2022-11-20T14:41:33.283Z,65.09
2022-11-20T14:44:03.796Z,66.11
2022-11-20T14:46:33.624Z,66.77
2022-11-20T14:49:05.275Z,67.31
2022-11-20T14:51:35.886Z,67.44
2022-11-20T14:54:15.742Z,68.11
2022-11-20T14:56:43.967Z,67.42
2022-11-20T14:59:13.558Z,67.52
2022-11-20T15:01:41.677Z,68.48
2022-11-20T15:04:13.319Z,69.04
2022-11-20T15:06:52.566Z,69.36
2022-11-20T15:09:20.638Z,70.09
2022-11-20T15:11:57.460Z,70.68
2022-11-20T15:14:28.418Z,71.12
2022-11-20T15:16:57.202Z,71.42
2022-11-20T15:19:27.233Z,72.17
2022-11-20T15:21:55.642Z,72.57
2022-11-20T15:24:23.819Z,72.99
2022-11-20T15:26:52.100Z,73.40
2022-11-20T15:29:22.019Z,73.86
2022-11-20T15:31:52.060Z,74.64
2022-11-20T15:34:20.690Z,74.70
2022-11-20T15:36:48.807Z,74.96
2022-11-20T15:39:16.883Z,75.23
2022-11-20T15:41:44.955Z,75.46
2022-11-20T15:44:13.217Z,75.90
2022-11-20T15:46:45.556Z,76.61
2022-11-20T15:49:16.747Z,77.01
2022-11-20T15:51:47.418Z,77.24
2022-11-20T15:54:18.580Z,77.72
2022-11-20T15:56:46.622Z,78.42
2022-11-20T15:59:15.919Z,78.71
2022-11-20T16:01:44.402Z,79.37
2022-11-20T16:04:15.984Z,79.82
2022-11-20T16:06:44.084Z,80.13
2022-11-20T16:09:12.226Z,80.32
2022-11-20T16:11:40.815Z,80.61
2022-11-20T16:14:26.453Z,81.15
2022-11-20T16:16:54.660Z,81.17
2022-11-20T16:19:24.180Z,81.33
2022-11-20T16:21:52.459Z,81.58
2022-11-20T16:24:20.987Z,81.53
2022-11-20T16:26:49.778Z,81.56
2022-11-20T16:29:17.854Z,81.47
2022-11-20T16:31:45.965Z,81.70
2022-11-20T16:34:14.051Z,81.96
2022-11-20T16:36:45.997Z,82.15
2022-11-20T16:39:17.780Z,82.27
2022-11-20T16:42:53.788Z,82.47
2022-11-20T16:45:33.940Z,83.08
2022-11-20T16:48:02.379Z,83.74
2022-11-20T16:50:30.640Z,84.00
2022-11-20T16:53:02.863Z,84.68
2022-11-20T16:55:30.926Z,84.77
2022-11-20T16:57:59.100Z,85.40
2022-11-20T17:00:27.173Z,85.69
2022-11-20T17:02:55.876Z,85.98
2022-11-20T17:05:23.960Z,86.55
2022-11-20T17:07:52.143Z,87.22
2022-11-20T17:10:22.245Z,87.57
2022-11-20T17:12:50.382Z,87.91
2022-11-20T17:15:18.493Z,88.34
2022-11-20T17:17:50.049Z,88.72
2022-11-20T17:20:18.258Z,89.19
2022-11-20T17:22:46.405Z,89.31
2022-11-20T17:25:14.396Z,89.83
2022-11-20T17:27:43.789Z,90.03
2022-11-20T17:30:12.180Z,90.33
2022-11-20T17:32:45.966Z,90.70
2022-11-20T17:35:38.142Z,90.82
2022-11-20T17:38:07.290Z,91.11
2022-11-20T17:40:35.480Z,91.35
2022-11-20T17:43:04.979Z,91.55
2022-11-20T17:45:33.166Z,91.74
2022-11-20T17:48:01.299Z,91.99
2022-11-20T17:50:29.614Z,92.17
2022-11-20T17:52:57.629Z,92.19
2022-11-20T17:55:25.616Z,92.51
2022-11-20T17:58:02.848Z,92.76
2022-11-20T18:00:32.373Z,92.85
2022-11-20T18:03:00.968Z,93.02
2022-11-20T18:05:28.951Z,93.07
2022-11-20T18:07:57.088Z,93.12
2022-11-20T18:10:25.118Z,93.22
2022-11-20T18:12:53.933Z,93.22
2022-11-20T18:15:21.957Z,93.23
2022-11-20T18:17:51.416Z,93.19
2022-11-20T18:20:39.613Z,93.33
2022-11-20T18:23:08.186Z,93.35
2022-11-20T18:25:36.243Z,93.13
2022-11-20T18:28:04.375Z,93.31
2022-11-20T18:30:32.452Z,93.40
2022-11-20T18:33:06.118Z,93.62
2022-11-20T18:35:34.362Z,93.51
2022-11-20T18:38:02.572Z,93.92
2022-11-20T18:40:31.142Z,93.65
2022-11-20T18:43:16.333Z,93.96
2022-11-20T18:45:44.623Z,93.92
2022-11-20T18:48:14.028Z,94.09
2022-11-20T18:50:42.049Z,94.10
2022-11-20T18:53:10.095Z,94.65
2022-11-20T18:55:38.104Z,94.85
2022-11-20T18:58:09.500Z,94.91
2022-11-20T19:00:40.469Z,95.00
2022-11-20T19:03:08.478Z,94.86
2022-11-20T19:05:38.934Z,95.01
2022-11-20T19:08:07.137Z,95.24
2022-11-20T19:10:35.270Z,95.09
2022-11-20T19:13:03.299Z,94.59
2022-11-20T19:15:31.358Z,94.53
2022-11-20T19:18:01.330Z,94.53
2022-11-20T19:20:29.383Z,94.09
2022-11-20T19:22:58.819Z,94.40
2022-11-20T19:25:28.012Z,94.24
2022-11-20T19:27:56.024Z,94.48
2022-11-20T19:30:24.112Z,94.80
2022-11-20T19:32:52.074Z,95.08
2022-11-20T19:35:20.087Z,95.23
2022-11-20T19:37:48.101Z,95.29
2022-11-20T19:40:26.360Z,95.00
2022-11-20T19:42:54.744Z,94.90
2022-11-20T19:45:22.829Z,94.77
2022-11-20T19:48:07.946Z,94.49
2022-11-20T19:50:36.442Z,94.53
2022-11-20T19:53:04.410Z,94.68
2022-11-20T19:55:34.215Z,94.58
2022-11-20T19:58:03.310Z,94.66
2022-11-20T20:00:32.997Z,94.78
2022-11-20T20:03:01.404Z,94.92
2022-11-20T20:05:30.316Z,95.17
2022-11-20T20:07:58.460Z,94.95
2022-11-20T20:10:26.472Z,95.22
2022-11-20T20:12:56.088Z,95.47
2022-11-20T20:15:24.279Z,95.88
2022-11-20T20:17:53.148Z,96.04
2022-11-20T20:20:24.981Z,96.54
2022-11-20T20:22:53.458Z,96.90
2022-11-20T20:25:21.476Z,96.79
2022-11-20T20:27:49.442Z,97.17
2022-11-20T20:30:19.359Z,97.21
2022-11-20T20:32:50.754Z,97.15
2022-11-20T20:35:21.490Z,97.49
2022-11-20T20:37:49.514Z,97.59
2022-11-20T20:40:19.008Z,97.41
2022-11-20T20:42:47.051Z,97.53
2022-11-20T20:45:15.173Z,97.55
2022-11-20T20:47:44.630Z,97.51
2022-11-20T20:50:13.767Z,97.36
2022-11-20T20:52:46.399Z,97.37
2022-11-20T20:55:14.479Z,97.29
2022-11-20T20:57:42.680Z,97.30
2022-11-20T21:00:11.526Z,97.38
2022-11-20T21:06:33.966Z,97.37
2022-11-20T21:09:01.944Z,97.25
2022-11-20T21:11:30.004Z,97.63
2022-11-20T21:13:58.032Z,97.65
2022-11-20T21:16:26.575Z,97.71
2022-11-20T21:18:54.695Z,97.66
2022-11-20T21:21:40.397Z,97.83
2022-11-20T21:24:10.401Z,98.03
2022-11-20T21:26:38.450Z,98.16
2022-11-20T21:29:06.406Z,98.36
2022-11-20T21:31:34.463Z,98.38
2022-11-20T21:34:02.551Z,98.69
2022-11-20T21:36:32.137Z,98.45
2022-11-20T21:39:00.554Z,98.26
2022-11-20T21:41:31.517Z,98.24
2022-11-20T21:46:48.882Z,98.30
2022-11-20T21:49:18.312Z,98.18
2022-11-20T21:51:46.354Z,98.18
2022-11-20T21:54:14.426Z,98.29
2022-11-20T21:56:43.745Z,98.12
2022-11-20T21:59:14.016Z,98.11
2022-11-20T22:01:42.276Z,98.04
2022-11-20T22:04:15.025Z,97.98
2022-11-20T22:06:43.017Z,97.89
2022-11-20T22:09:11.891Z,98.05
2022-11-20T22:11:39.891Z,98.02
2022-11-20T22:14:23.489Z,98.23
2022-11-20T22:16:53.485Z,98.37
2022-11-20T22:19:22.780Z,98.69
2022-11-20T22:21:51.773Z,99.25
2022-11-20T22:24:21.591Z,99.79
2022-11-20T22:26:50.173Z,100.00
2022-11-20T22:29:21.963Z,100.00
2022-11-20T22:31:52.420Z,100.00
2022-11-20T22:34:20.858Z,100.00
2022-11-20T22:36:49.079Z,100.00
2022-11-20T22:39:17.673Z,100.00
2022-11-20T22:41:45.735Z,100.00
2022-11-20T22:44:17.181Z,100.00
2022-11-20T22:46:46.577Z,100.00
2022-11-20T22:49:14.893Z,100.00
2022-11-20T22:51:43.468Z,100.00
2022-11-20T22:54:12.865Z,100.00
2022-11-20T22:56:40.945Z,100.00
2022-11-20T22:59:09.069Z,100.00
2022-11-20T23:01:38.109Z,100.00
2022-11-20T23:04:11.108Z,100.00
2022-11-20T23:06:39.597Z,100.00
2022-11-20T23:09:08.959Z,100.00
2022-11-20T23:11:37.295Z,100.00
2022-11-20T23:14:07.275Z,99.90
2022-11-20T23:16:35.891Z,99.75
2022-11-20T23:19:05.789Z,99.25
2022-11-20T23:21:35.746Z,98.76
2022-11-20T23:24:03.992Z,98.25
2022-11-20T23:26:36.485Z,97.85
2022-11-20T23:29:06.466Z,97.50
2022-11-20T23:31:35.814Z,97.30
2022-11-20T23:34:04.426Z,97.03
2022-11-20T23:36:34.136Z,96.97
2022-11-20T23:39:02.086Z,96.79
2022-11-20T23:41:30.072Z,96.87
2022-11-20T23:43:58.037Z,96.42
2022-11-20T23:46:26.028Z,96.50
2022-11-20T23:48:54.006Z,95.90
2022-11-20T23:51:22.062Z,95.95
2022-11-20T23:53:51.435Z,95.58
2022-11-20T23:56:19.394Z,95.14
2022-11-20T23:58:47.592Z,94.70
